Time;durP1;ratioP1;P1;durP2;ratioP2;P2;SDS_P1;SDS_P2;PMS_P1;PMS_P2;Temp;Humidity;BMP_temperature;BMP_pressure;BME280_temperature;BME280_humidity;BME280_pressure;Samples;Min_cycle;Max_cycle;Signal;HPM_P1;HPM_P2
2021/12/30 00:00:57;;;;;;;50.55;16.55;;;10.60;99.90;;;;;;5011448;28;20030;-87
2021/12/30 00:03:23;;;;;;;54.33;16.50;;;10.60;99.90;;;;;;5012968;28;20092;-86
2021/12/30 00:05:49;;;;;;;45.05;16.08;;;10.60;99.90;;;;;;5007004;28;20026;-87
2021/12/30 00:08:14;;;;;;;45.10;16.83;;;10.60;99.90;;;;;;5008741;28;20041;-87
2021/12/30 00:10:40;;;;;;;59.60;16.67;;;10.70;99.90;;;;;;4996292;28;20367;-87
2021/12/30 00:13:06;;;;;;;49.33;16.35;;;10.70;99.90;;;;;;5005153;28;20148;-87
2021/12/30 00:15:32;;;;;;;64.97;17.13;;;10.70;99.90;;;;;;5009409;28;20456;-87
2021/12/30 00:17:58;;;;;;;47.70;15.27;;;10.80;99.90;;;;;;5012118;28;20026;-87
2021/12/30 00:20:24;;;;;;;42.08;13.07;;;10.90;99.90;;;;;;5006611;28;20034;-86
2021/12/30 00:22:50;;;;;;;55.67;13.65;;;10.90;99.90;;;;;;5011535;28;20390;-87
2021/12/30 00:25:16;;;;;;;50.33;12.45;;;11.00;99.90;;;;;;5010357;28;20037;-87
2021/12/30 00:27:42;;;;;;;50.75;12.95;;;11.00;99.90;;;;;;5011752;28;20057;-87
2021/12/30 00:30:10;;;;;;;51.22;11.20;;;11.10;99.90;;;;;;5013356;28;20032;-87
2021/12/30 00:32:36;;;;;;;48.53;10.80;;;11.10;99.90;;;;;;5007256;28;20026;-87
2021/12/30 00:35:02;;;;;;;30.85;9.10;;;11.20;99.90;;;;;;5011312;28;20096;-86
2021/12/30 00:37:27;;;;;;;42.40;9.77;;;11.20;99.90;;;;;;5013758;28;20110;-86
2021/12/30 00:39:53;;;;;;;44.33;10.13;;;11.20;99.90;;;;;;5007337;28;20031;-86
2021/12/30 00:42:18;;;;;;;49.75;10.15;;;11.20;99.90;;;;;;5008142;28;20026;-87
2021/12/30 00:44:44;;;;;;;49.25;9.82;;;11.30;99.90;;;;;;5008095;28;20037;-87
2021/12/30 00:47:10;;;;;;;41.88;9.18;;;11.20;99.90;;;;;;5011586;28;20080;-87
2021/12/30 00:49:35;;;;;;;41.70;9.68;;;11.20;99.90;;;;;;5012599;28;20036;-87
2021/12/30 00:52:02;;;;;;;37.38;9.18;;;11.30;99.90;;;;;;5012071;28;20121;-87
2021/12/30 00:54:27;;;;;;;50.53;9.88;;;11.30;99.90;;;;;;5017254;28;20038;-87
2021/12/30 00:56:53;;;;;;;38.88;8.82;;;11.30;99.90;;;;;;5012492;28;20053;-87
2021/12/30 00:59:18;;;;;;;37.88;8.65;;;11.30;99.90;;;;;;5012978;28;20030;-87
2021/12/30 01:01:44;;;;;;;36.97;8.32;;;11.40;99.90;;;;;;5011113;28;20064;-88
2021/12/30 01:04:10;;;;;;;40.55;9.32;;;11.40;99.90;;;;;;5002611;28;20037;-87
2021/12/30 01:06:35;;;;;;;41.72;9.55;;;11.40;99.90;;;;;;5008323;28;20049;-87
2021/12/30 01:09:02;;;;;;;50.13;11.35;;;11.40;99.90;;;;;;5011623;28;20038;-88
2021/12/30 01:11:28;;;;;;;47.55;10.50;;;11.50;99.90;;;;;;5019805;28;20022;-87
2021/12/30 01:14:17;;;;;;;45.33;11.75;;;11.50;99.90;;;;;;5016218;28;20486;-87
2021/12/30 01:16:46;;;;;;;49.38;11.80;;;11.60;99.90;;;;;;5007567;28;20064;-87
2021/12/30 01:21:47;;;;;;;45.83;13.40;;;11.70;99.90;;;;;;5006198;28;20030;-85
2021/12/30 01:24:13;;;;;;;54.38;14.60;;;11.70;99.90;;;;;;5004827;28;20037;-84
2021/12/30 01:26:38;;;;;;;46.25;13.82;;;11.70;99.90;;;;;;5010287;28;20029;-84
2021/12/30 01:29:04;;;;;;;41.20;14.43;;;11.80;99.90;;;;;;5012413;28;20080;-85
2021/12/30 01:31:30;;;;;;;47.53;14.82;;;11.90;99.90;;;;;;5003308;28;20034;-84
2021/12/30 01:33:55;;;;;;;57.35;16.33;;;11.90;99.90;;;;;;5011064;28;20044;-86
2021/12/30 01:36:22;;;;;;;49.15;14.90;;;11.90;99.90;;;;;;5010037;28;20395;-85
2021/12/30 01:38:48;;;;;;;50.72;15.65;;;11.90;99.90;;;;;;5010500;28;20440;-86
2021/12/30 01:41:14;;;;;;;57.22;16.60;;;11.90;99.90;;;;;;5008995;28;20025;-85
2021/12/30 01:43:40;;;;;;;47.05;16.50;;;12.00;99.90;;;;;;5011537;28;20489;-86
2021/12/30 01:46:07;;;;;;;55.40;16.73;;;12.00;99.90;;;;;;5007880;28;20022;-85
2021/12/30 01:48:33;;;;;;;53.95;17.88;;;12.10;99.90;;;;;;5009399;28;20083;-85
2021/12/30 01:50:59;;;;;;;69.05;19.77;;;12.00;99.90;;;;;;5011460;28;20025;-85
2021/12/30 01:53:25;;;;;;;52.20;16.50;;;12.00;99.90;;;;;;4998616;28;20045;-85
2021/12/30 01:55:52;;;;;;;54.60;17.42;;;12.00;99.90;;;;;;5005895;28;20034;-86
2021/12/30 01:58:18;;;;;;;59.15;17.77;;;12.10;99.90;;;;;;5006367;28;20484;-86
2021/12/30 02:00:46;;;;;;;61.97;19.13;;;12.00;99.90;;;;;;5009542;28;20179;-85
2021/12/30 02:03:13;;;;;;;57.67;18.63;;;12.00;99.90;;;;;;5006824;28;20029;-85
2021/12/30 02:05:41;;;;;;;62.83;19.13;;;12.00;99.90;;;;;;5008506;28;20030;-86
2021/12/30 02:08:08;;;;;;;69.45;19.63;;;12.00;99.90;;;;;;5006495;28;20026;-86
2021/12/30 02:10:34;;;;;;;63.67;19.00;;;12.00;99.90;;;;;;4994524;28;20520;-85
2021/12/30 02:13:01;;;;;;;57.25;18.65;;;12.00;99.90;;;;;;5008076;28;20029;-86
2021/12/30 02:15:27;;;;;;;58.08;18.40;;;11.90;99.90;;;;;;5006315;28;20073;-85
2021/12/30 02:17:54;;;;;;;58.30;18.15;;;11.90;99.90;;;;;;5007759;28;20068;-85
2021/12/30 02:20:41;;;;;;;56.72;18.50;;;12.00;99.90;;;;;;5004756;28;20068;-86
2021/12/30 02:23:08;;;;;;;59.58;19.17;;;11.90;99.90;;;;;;5011831;28;20022;-86
2021/12/30 02:25:34;;;;;;;53.67;17.25;;;12.00;99.90;;;;;;5003065;28;20061;-86
2021/12/30 02:27:59;;;;;;;61.03;17.83;;;12.00;99.90;;;;;;5008809;28;20486;-85
2021/12/30 02:30:25;;;;;;;57.45;18.92;;;12.00;99.90;;;;;;5001863;28;20080;-87
2021/12/30 02:32:50;;;;;;;56.80;19.00;;;12.00;99.90;;;;;;5010252;28;20030;-86
2021/12/30 02:35:16;;;;;;;51.05;17.60;;;12.00;99.90;;;;;;5013997;28;20041;-86
2021/12/30 02:37:42;;;;;;;52.70;17.63;;;12.00;99.90;;;;;;5007113;28;20022;-87
2021/12/30 02:40:08;;;;;;;53.92;18.63;;;12.10;99.90;;;;;;5010001;28;20486;-88
2021/12/30 02:42:33;;;;;;;50.75;18.10;;;12.10;99.90;;;;;;5007404;28;20489;-87
2021/12/30 02:44:59;;;;;;;53.60;18.33;;;12.10;99.90;;;;;;5011139;28;20046;-88
2021/12/30 02:47:24;;;;;;;56.28;18.75;;;12.10;99.90;;;;;;5010877;28;20029;-88
2021/12/30 02:49:50;;;;;;;51.95;17.40;;;12.10;99.90;;;;;;5010473;28;20026;-87
2021/12/30 02:52:15;;;;;;;48.13;18.30;;;12.10;99.90;;;;;;5004374;28;20117;-88
2021/12/30 02:54:42;;;;;;;50.78;17.98;;;12.10;99.90;;;;;;5010618;28;20399;-87
2021/12/30 02:57:09;;;;;;;53.38;17.92;;;12.20;99.90;;;;;;5004550;28;20048;-87
2021/12/30 02:59:35;;;;;;;49.08;18.35;;;12.20;99.90;;;;;;5001607;28;20510;-89
2021/12/30 03:02:01;;;;;;;51.17;19.15;;;12.20;99.90;;;;;;5005558;28;20030;-87
2021/12/30 03:04:29;;;;;;;50.67;17.83;;;12.20;99.90;;;;;;5022538;28;20692;-88
2021/12/30 03:06:54;;;;;;;52.58;18.65;;;12.20;99.90;;;;;;5012132;28;20033;-88
2021/12/30 03:09:20;;;;;;;57.20;18.50;;;12.20;99.90;;;;;;5028864;28;20030;-88
2021/12/30 03:11:45;;;;;;;49.97;19.73;;;12.20;99.90;;;;;;5013183;28;20061;-88
2021/12/30 03:14:11;;;;;;;65.43;20.67;;;12.20;99.90;;;;;;5012805;28;20114;-87
2021/12/30 03:16:37;;;;;;;57.65;19.27;;;12.20;99.90;;;;;;5011083;28;20041;-88
2021/12/30 03:19:04;;;;;;;53.83;17.27;;;12.20;99.90;;;;;;5015923;28;20034;-88
2021/12/30 03:21:30;;;;;;;64.70;19.98;;;12.20;99.90;;;;;;5014069;28;20502;-88
2021/12/30 03:23:59;;;;;;;62.45;20.40;;;12.20;99.90;;;;;;5016223;28;20025;-88
2021/12/30 03:26:25;;;;;;;62.72;20.02;;;12.20;99.90;;;;;;5012429;28;20429;-89
2021/12/30 03:28:51;;;;;;;60.38;20.67;;;12.20;99.90;;;;;;5013966;28;20112;-88
2021/12/30 03:31:20;;;;;;;65.13;20.00;;;12.20;99.90;;;;;;5012099;28;20080;-88
2021/12/30 03:33:46;;;;;;;58.15;21.08;;;12.20;99.90;;;;;;5026088;28;20034;-88
2021/12/30 03:36:12;;;;;;;62.85;21.40;;;12.20;99.90;;;;;;5012561;28;20041;-88
2021/12/30 03:38:42;;;;;;;68.93;22.70;;;12.20;99.90;;;;;;5013196;28;20030;-88
2021/12/30 03:41:10;;;;;;;65.68;21.65;;;12.30;99.90;;;;;;5030446;28;20029;-86
2021/12/30 03:43:36;;;;;;;60.90;22.30;;;12.30;99.90;;;;;;5006956;28;20027;-88
2021/12/30 03:46:03;;;;;;;64.43;23.45;;;12.30;99.90;;;;;;5012687;28;20021;-88
2021/12/30 03:48:33;;;;;;;65.03;22.92;;;12.30;99.90;;;;;;5012574;28;20112;-88
2021/12/30 03:51:08;;;;;;;61.95;23.15;;;12.30;99.90;;;;;;5011096;28;20036;-88
2021/12/30 03:53:38;;;;;;;59.08;23.08;;;12.30;99.90;;;;;;5029758;28;20109;-88
2021/12/30 03:56:08;;;;;;;75.68;24.60;;;12.30;99.90;;;;;;5028404;28;20025;-88
2021/12/30 03:58:34;;;;;;;66.18;24.33;;;12.40;99.90;;;;;;5014527;28;20053;-87
2021/12/30 04:00:59;;;;;;;70.70;24.95;;;12.30;99.90;;;;;;5015887;28;20038;-87
2021/12/30 04:03:25;;;;;;;78.65;24.52;;;12.30;99.90;;;;;;5013159;28;20395;-88
2021/12/30 04:05:50;;;;;;;66.15;24.92;;;12.40;99.90;;;;;;5013598;28;20076;-88
2021/12/30 04:08:16;;;;;;;70.47;22.70;;;12.30;99.90;;;;;;5011636;28;20025;-89
2021/12/30 04:10:42;;;;;;;69.45;24.58;;;12.40;99.90;;;;;;5012197;28;20122;-88
2021/12/30 04:13:08;;;;;;;68.63;24.65;;;12.40;99.90;;;;;;5013970;28;20049;-88
2021/12/30 04:15:33;;;;;;;60.00;22.70;;;12.40;99.90;;;;;;5012738;28;20037;-87
2021/12/30 04:17:59;;;;;;;57.85;21.92;;;12.40;99.90;;;;;;5006102;28;20546;-89
2021/12/30 04:20:24;;;;;;;69.28;22.40;;;12.40;99.90;;;;;;5010368;28;20067;-87
2021/12/30 04:22:50;;;;;;;65.57;20.52;;;12.40;99.90;;;;;;5014256;28;20033;-88
2021/12/30 04:25:16;;;;;;;58.92;19.05;;;12.40;99.90;;;;;;5010489;28;20077;-87
2021/12/30 04:27:43;;;;;;;49.88;18.30;;;12.40;99.90;;;;;;5010765;28;20025;-88
2021/12/30 04:30:10;;;;;;;44.92;17.45;;;12.40;99.90;;;;;;5008116;28;20037;-88
2021/12/30 04:32:36;;;;;;;44.75;18.65;;;12.40;99.90;;;;;;5010746;28;20030;-88
2021/12/30 04:35:03;;;;;;;44.38;16.10;;;12.40;99.90;;;;;;5009949;28;20048;-88
2021/12/30 04:37:28;;;;;;;47.22;17.30;;;12.40;99.90;;;;;;5008946;28;20030;-88
2021/12/30 04:39:54;;;;;;;52.88;18.17;;;12.50;99.90;;;;;;5011004;28;20609;-87
2021/12/30 04:42:19;;;;;;;50.70;17.83;;;12.50;99.90;;;;;;5008419;28;20125;-88
2021/12/30 04:44:47;;;;;;;52.35;17.85;;;12.50;99.90;;;;;;5014989;28;20033;-88
2021/12/30 04:47:13;;;;;;;53.50;16.92;;;12.50;99.90;;;;;;5012331;28;20060;-88
2021/12/30 04:49:39;;;;;;;42.42;16.02;;;12.50;99.90;;;;;;5005983;28;20030;-89
2021/12/30 04:52:05;;;;;;;49.60;15.98;;;12.50;99.90;;;;;;4997271;28;20026;-88
2021/12/30 04:54:30;;;;;;;39.88;15.55;;;12.50;99.90;;;;;;4994439;28;20053;-88
2021/12/30 04:56:56;;;;;;;41.20;15.40;;;12.50;99.90;;;;;;5005596;28;20517;-87
2021/12/30 04:59:22;;;;;;;40.40;14.85;;;12.50;99.90;;;;;;5008289;28;20030;-88
2021/12/30 05:01:48;;;;;;;36.53;15.10;;;12.50;99.90;;;;;;5010594;28;20072;-88
2021/12/30 05:04:13;;;;;;;42.53;15.73;;;12.50;99.90;;;;;;5010141;28;20041;-88
2021/12/30 05:06:39;;;;;;;35.92;14.40;;;12.50;99.90;;;;;;5011488;28;20029;-88
2021/12/30 05:09:08;;;;;;;30.25;12.50;;;12.60;99.90;;;;;;5013287;28;20041;-88
2021/12/30 05:11:35;;;;;;;35.10;13.07;;;12.60;99.90;;;;;;5013364;28;20393;-88
2021/12/30 05:14:01;;;;;;;30.60;12.85;;;12.60;99.90;;;;;;5012499;28;20030;-88
2021/12/30 05:16:27;;;;;;;36.50;14.65;;;12.60;99.90;;;;;;5011646;28;20026;-88
2021/12/30 05:18:56;;;;;;;40.40;14.50;;;12.60;99.90;;;;;;5013094;28;20061;-87
2021/12/30 05:21:22;;;;;;;31.65;13.77;;;12.60;99.90;;;;;;5009753;28;20052;-87
2021/12/30 05:23:48;;;;;;;29.77;13.30;;;12.60;99.90;;;;;;5002464;28;20522;-88
2021/12/30 05:26:16;;;;;;;26.77;12.23;;;12.60;99.90;;;;;;5018203;28;20030;-88
2021/12/30 05:28:45;;;;;;;25.60;11.57;;;12.70;99.90;;;;;;5010670;28;20033;-88
2021/12/30 05:31:11;;;;;;;22.08;10.82;;;12.70;99.90;;;;;;5009191;28;20115;-88
2021/12/30 05:33:37;;;;;;;19.38;10.40;;;12.70;99.90;;;;;;5011792;28;20018;-88
2021/12/30 05:36:03;;;;;;;18.60;10.48;;;12.80;99.90;;;;;;5010374;28;20032;-88
2021/12/30 05:38:28;;;;;;;22.75;12.07;;;12.80;99.90;;;;;;5028884;28;20277;-88
2021/12/30 05:40:54;;;;;;;24.38;13.10;;;12.80;99.90;;;;;;5012090;28;20040;-88
2021/12/30 05:43:19;;;;;;;28.20;14.25;;;12.80;99.90;;;;;;4998249;28;20045;-88
2021/12/30 05:45:45;;;;;;;32.03;16.95;;;12.90;99.90;;;;;;5004769;28;20022;-88
2021/12/30 05:48:10;;;;;;;29.13;16.85;;;12.90;99.90;;;;;;5005987;28;20037;-88
2021/12/30 05:50:36;;;;;;;27.92;15.73;;;12.90;99.90;;;;;;5011626;28;20029;-88
2021/12/30 05:53:03;;;;;;;30.42;18.15;;;12.90;99.90;;;;;;5008287;28;20040;-88
2021/12/30 05:55:29;;;;;;;31.20;17.92;;;13.00;99.90;;;;;;5010433;28;20128;-88
2021/12/30 05:57:55;;;;;;;29.88;17.02;;;13.00;99.90;;;;;;5010089;28;20061;-89
2021/12/30 06:00:22;;;;;;;26.95;15.88;;;13.00;99.90;;;;;;5011106;28;20088;-88
2021/12/30 06:02:48;;;;;;;26.08;15.15;;;13.00;99.90;;;;;;5013030;28;20032;-89
2021/12/30 06:05:14;;;;;;;21.85;13.45;;;13.10;99.90;;;;;;5003516;28;20037;-92
2021/12/30 06:07:40;;;;;;;20.77;12.73;;;13.10;99.90;;;;;;5012875;28;20029;-89
2021/12/30 06:10:06;;;;;;;20.45;12.38;;;13.10;99.90;;;;;;5011278;28;20072;-87
2021/12/30 06:12:33;;;;;;;16.75;11.23;;;13.20;99.90;;;;;;5010435;28;20050;-89
2021/12/30 06:14:59;;;;;;;18.25;10.75;;;13.20;99.90;;;;;;5027941;28;20380;-89
2021/12/30 06:17:24;;;;;;;18.98;10.52;;;13.20;99.90;;;;;;5004496;28;20029;-89
2021/12/30 06:19:50;;;;;;;16.35;10.35;;;13.30;99.90;;;;;;5006858;28;20040;-89
2021/12/30 06:22:16;;;;;;;15.43;10.02;;;13.30;99.90;;;;;;5006325;28;20057;-89
2021/12/30 06:24:42;;;;;;;16.00;11.20;;;13.40;99.90;;;;;;4996686;28;20364;-86
2021/12/30 06:27:08;;;;;;;19.17;13.43;;;13.40;99.90;;;;;;5020818;28;20037;-87
2021/12/30 06:29:34;;;;;;;18.40;12.30;;;13.40;99.90;;;;;;5021581;28;20036;-87
2021/12/30 06:32:00;;;;;;;17.85;13.13;;;13.50;99.90;;;;;;5006387;28;20043;-87
2021/12/30 06:34:26;;;;;;;18.10;14.02;;;13.50;99.90;;;;;;5005813;28;20061;-87
2021/12/30 06:36:52;;;;;;;20.08;13.45;;;13.50;99.90;;;;;;5008310;28;20521;-87
2021/12/30 06:39:17;;;;;;;21.23;14.05;;;13.40;99.90;;;;;;5006552;28;20026;-87
2021/12/30 06:41:43;;;;;;;18.83;12.70;;;13.40;99.90;;;;;;5005082;28;20018;-87
2021/12/30 06:44:08;;;;;;;18.45;12.73;;;13.40;99.90;;;;;;5005178;28;20044;-87
2021/12/30 06:46:34;;;;;;;18.70;11.80;;;13.40;99.90;;;;;;5005146;28;20034;-87
2021/12/30 06:49:00;;;;;;;15.88;10.95;;;13.40;99.90;;;;;;5021272;28;20466;-88
2021/12/30 06:51:27;;;;;;;16.80;10.18;;;13.40;99.90;;;;;;5007618;28;20086;-88
2021/12/30 06:53:55;;;;;;;17.63;10.80;;;13.40;99.90;;;;;;5004110;28;20099;-88
2021/12/30 06:56:23;;;;;;;16.60;9.57;;;13.40;99.90;;;;;;5002272;28;20038;-88
2021/12/30 06:58:49;;;;;;;18.20;10.43;;;13.40;99.90;;;;;;5010436;28;20029;-88
2021/12/30 07:01:14;;;;;;;15.50;10.13;;;13.40;99.90;;;;;;5006887;28;20487;-88
2021/12/30 07:03:40;;;;;;;18.85;10.43;;;13.40;99.90;;;;;;5013463;28;20033;-87
2021/12/30 07:06:07;;;;;;;21.52;11.70;;;13.40;99.90;;;;;;4999760;28;20030;-87
2021/12/30 07:08:32;;;;;;;18.45;11.63;;;13.40;99.90;;;;;;5021832;28;20093;-89
2021/12/30 07:10:58;;;;;;;20.92;11.20;;;13.30;99.90;;;;;;5006309;28;20165;-88
2021/12/30 07:13:24;;;;;;;19.70;11.98;;;13.30;99.90;;;;;;5025151;28;20022;-87
2021/12/30 07:15:49;;;;;;;17.77;12.30;;;13.30;99.90;;;;;;5001840;28;20037;-87
2021/12/30 07:18:15;;;;;;;20.13;11.57;;;13.30;99.90;;;;;;5005154;28;20033;-88
2021/12/30 07:20:41;;;;;;;22.08;12.70;;;13.30;99.90;;;;;;5002287;28;20032;-88
2021/12/30 07:23:06;;;;;;;21.08;11.57;;;13.30;99.90;;;;;;5004954;28;20026;-88
2021/12/30 07:25:32;;;;;;;17.38;10.07;;;13.30;99.90;;;;;;5020613;28;20462;-87
2021/12/30 07:27:58;;;;;;;20.15;12.02;;;13.30;99.90;;;;;;5004382;28;20552;-89
2021/12/30 07:30:25;;;;;;;17.13;10.43;;;13.40;99.90;;;;;;5019628;28;20386;-87
2021/12/30 07:32:51;;;;;;;19.00;10.57;;;13.40;99.90;;;;;;5022287;28;20041;-87
2021/12/30 07:35:19;;;;;;;15.73;10.07;;;13.40;99.90;;;;;;5014919;28;20038;-88
2021/12/30 07:37:45;;;;;;;21.52;8.20;;;13.40;99.90;;;;;;5006439;28;20022;-88
2021/12/30 07:40:11;;;;;;;13.65;8.05;;;13.50;99.90;;;;;;5021961;28;20064;-87
2021/12/30 07:42:38;;;;;;;11.52;6.63;;;13.50;99.90;;;;;;5021046;28;20225;-87
2021/12/30 07:45:04;;;;;;;12.02;5.72;;;13.50;99.90;;;;;;5004238;28;20026;-87
2021/12/30 07:47:31;;;;;;;12.90;6.25;;;13.50;99.90;;;;;;5005824;28;20053;-87
2021/12/30 07:49:56;;;;;;;9.63;5.38;;;13.50;99.90;;;;;;5006874;28;20511;-88
2021/12/30 07:52:22;;;;;;;10.65;5.68;;;13.60;99.90;;;;;;5012497;28;20018;-86
2021/12/30 07:54:47;;;;;;;8.77;4.13;;;13.60;99.90;;;;;;5007085;28;20505;-86
2021/12/30 07:57:21;;;;;;;5.32;3.38;;;13.60;99.90;;;;;;5006178;28;20046;-86
2021/12/30 07:59:49;;;;;;;7.07;3.22;;;13.60;99.90;;;;;;5009158;28;20029;-88
2021/12/30 08:02:17;;;;;;;6.00;3.40;;;13.70;99.90;;;;;;5023693;28;20034;-87
2021/12/30 08:04:48;;;;;;;3.95;2.80;;;13.70;99.90;;;;;;5010165;28;20026;-87
2021/12/30 08:07:19;;;;;;;5.85;2.50;;;13.80;99.90;;;;;;5014222;28;20030;-88
2021/12/30 08:09:45;;;;;;;4.20;2.17;;;13.80;99.90;;;;;;5022722;28;20041;-87
2021/12/30 08:12:11;;;;;;;4.78;2.17;;;13.80;99.90;;;;;;5009250;28;20033;-86
2021/12/30 08:14:37;;;;;;;3.72;2.10;;;13.80;99.90;;;;;;5026081;28;20041;-86
2021/12/30 08:17:06;;;;;;;5.47;2.30;;;13.80;99.90;;;;;;5023688;28;20022;-85
2021/12/30 08:19:32;;;;;;;4.15;1.77;;;13.80;99.90;;;;;;5012745;28;20044;-86
2021/12/30 08:21:57;;;;;;;4.50;1.70;;;13.80;99.90;;;;;;5010287;28;20030;-86
2021/12/30 08:24:23;;;;;;;3.95;1.90;;;13.80;99.90;;;;;;5010159;28;20029;-85
2021/12/30 08:26:48;;;;;;;3.35;1.75;;;13.80;99.90;;;;;;5007346;28;20054;-86
2021/12/30 08:29:15;;;;;;;8.07;1.92;;;13.80;99.90;;;;;;5008325;28;20038;-85
2021/12/30 08:31:41;;;;;;;4.25;1.73;;;13.80;99.90;;;;;;5006266;28;20026;-87
2021/12/30 08:34:07;;;;;;;3.25;1.33;;;13.80;99.90;;;;;;5011160;28;20037;-87
2021/12/30 08:36:34;;;;;;;2.58;1.20;;;13.90;99.90;;;;;;5010565;28;20073;-86
2021/12/30 08:39:00;;;;;;;2.63;1.40;;;13.90;99.90;;;;;;5013699;28;20022;-87
2021/12/30 08:41:29;;;;;;;2.35;1.42;;;13.90;99.90;;;;;;5009114;28;20080;-87
2021/12/30 08:43:55;;;;;;;6.32;1.80;;;13.90;99.90;;;;;;5012067;28;20433;-85
2021/12/30 08:46:20;;;;;;;4.45;2.10;;;14.00;99.90;;;;;;5012286;28;20083;-85
2021/12/30 08:48:46;;;;;;;3.72;1.63;;;13.90;99.90;;;;;;5012441;28;20034;-85
2021/12/30 08:51:11;;;;;;;3.90;1.92;;;14.00;99.90;;;;;;5010794;28;20169;-84
2021/12/30 08:53:41;;;;;;;4.18;1.80;;;14.00;99.90;;;;;;5018561;28;20061;-86
2021/12/30 08:56:13;;;;;;;3.75;1.55;;;14.00;99.90;;;;;;5009911;28;20029;-86
2021/12/30 08:58:40;;;;;;;6.20;1.80;;;14.00;99.90;;;;;;5008908;28;20030;-86
2021/12/30 09:01:05;;;;;;;6.10;1.70;;;14.10;99.90;;;;;;5008484;28;20033;-86
2021/12/30 09:03:31;;;;;;;3.60;1.38;;;14.10;99.90;;;;;;4996783;28;20025;-87
2021/12/30 09:05:56;;;;;;;6.95;1.10;;;14.10;99.90;;;;;;5010405;28;20052;-87
2021/12/30 09:08:22;;;;;;;4.70;1.23;;;14.20;99.90;;;;;;5006654;28;20026;-87
2021/12/30 09:10:49;;;;;;;3.92;1.00;;;14.20;99.90;;;;;;5010514;28;20124;-86
2021/12/30 09:13:18;;;;;;;8.25;1.52;;;14.30;99.90;;;;;;5011201;28;20142;-85
2021/12/30 09:15:45;;;;;;;3.38;1.15;;;14.30;99.90;;;;;;5001764;28;20569;-86
2021/12/30 09:18:10;;;;;;;5.82;1.50;;;14.30;99.90;;;;;;5011278;28;20045;-85
2021/12/30 09:20:39;;;;;;;6.38;1.58;;;14.40;99.90;;;;;;5012330;28;20119;-86
2021/12/30 09:23:06;;;;;;;5.38;1.55;;;14.40;99.90;;;;;;5028271;28;20037;-87
2021/12/30 09:25:32;;;;;;;4.22;1.30;;;14.40;99.90;;;;;;5009322;28;20037;-85
2021/12/30 09:27:58;;;;;;;6.43;1.45;;;14.40;99.90;;;;;;5004241;28;20034;-86
2021/12/30 09:30:27;;;;;;;5.93;1.38;;;14.40;99.90;;;;;;5010504;28;20030;-85
2021/12/30 09:32:54;;;;;;;5.10;1.38;;;14.40;99.90;;;;;;5024764;28;20026;-85
2021/12/30 09:35:21;;;;;;;5.68;1.35;;;14.40;99.90;;;;;;5007256;28;20034;-85
2021/12/30 09:37:47;;;;;;;9.05;1.63;;;14.40;99.90;;;;;;5014922;28;20048;-85
2021/12/30 09:40:14;;;;;;;8.25;1.30;;;14.50;99.90;;;;;;5013218;28;20030;-87
2021/12/30 09:42:44;;;;;;;6.13;1.83;;;14.50;99.90;;;;;;5008598;28;20021;-86
2021/12/30 09:45:11;;;;;;;11.07;2.20;;;14.50;99.90;;;;;;5011580;28;20040;-86
2021/12/30 09:47:48;;;;;;;8.07;2.17;;;14.50;99.90;;;;;;5012306;28;20033;-85
2021/12/30 09:50:14;;;;;;;8.25;2.00;;;14.60;99.90;;;;;;5025547;28;20026;-86
2021/12/30 09:52:40;;;;;;;8.50;2.65;;;14.60;99.90;;;;;;5013922;28;20116;-86
2021/12/30 09:55:07;;;;;;;8.15;2.30;;;14.60;99.90;;;;;;5008553;28;20057;-86
2021/12/30 09:57:32;;;;;;;10.60;2.97;;;14.60;99.90;;;;;;5004580;28;20042;-86
2021/12/30 09:59:58;;;;;;;11.85;3.67;;;14.70;99.90;;;;;;5005293;28;20117;-85
2021/12/30 10:02:23;;;;;;;10.57;2.22;;;14.70;99.90;;;;;;5004692;28;20105;-86
2021/12/30 10:05:05;;;;;;;6.30;2.63;;;14.70;99.90;;;;;;5008032;28;20033;-86
2021/12/30 10:07:31;;;;;;;8.45;3.00;;;14.80;99.90;;;;;;5024361;28;20033;-87
2021/12/30 10:10:01;;;;;;;9.57;2.88;;;14.90;99.90;;;;;;5011931;28;20034;-86
2021/12/30 10:12:44;;;;;;;11.75;2.67;;;14.90;99.90;;;;;;5004659;28;20036;-86
2021/12/30 10:15:11;;;;;;;9.00;2.40;;;15.00;99.90;;;;;;5009264;28;20050;-86
2021/12/30 10:17:37;;;;;;;9.43;2.45;;;14.90;99.90;;;;;;5010851;28;20028;-85
2021/12/30 10:20:17;;;;;;;8.75;3.38;;;15.00;99.90;;;;;;5020736;28;20038;-86
2021/12/30 10:22:43;;;;;;;10.95;3.08;;;15.00;99.90;;;;;;5019929;28;20022;-86
2021/12/30 10:25:33;;;;;;;9.88;2.70;;;14.90;99.90;;;;;;5010831;28;20291;-86
2021/12/30 10:28:36;;;;;;;9.48;2.60;;;14.90;99.90;;;;;;5023703;28;20364;-85
2021/12/30 10:31:23;;;;;;;10.32;3.13;;;14.90;99.90;;;;;;5023951;28;20084;-87
2021/12/30 10:33:59;;;;;;;10.23;2.00;;;14.90;99.90;;;;;;5023767;28;20030;-86
2021/12/30 10:36:32;;;;;;;8.52;2.22;;;14.90;99.90;;;;;;5002243;28;20034;-86
2021/12/30 10:39:18;;;;;;;8.48;2.47;;;14.90;99.90;;;;;;5005537;28;20129;-86
2021/12/30 10:41:45;;;;;;;9.38;2.38;;;14.90;99.90;;;;;;5003561;28;20030;-86
2021/12/30 10:44:10;;;;;;;9.48;1.73;;;14.80;99.90;;;;;;5018933;28;20505;-86
2021/12/30 10:46:36;;;;;;;12.35;3.08;;;14.90;99.90;;;;;;5007987;28;20077;-86
2021/12/30 10:49:05;;;;;;;9.07;2.00;;;14.90;99.90;;;;;;5006692;28;20096;-85
2021/12/30 10:51:41;;;;;;;11.13;2.72;;;14.90;99.90;;;;;;5007268;28;20026;-88
2021/12/30 10:54:32;;;;;;;10.40;1.95;;;14.90;99.90;;;;;;5020846;28;20034;-86
2021/12/30 10:57:09;;;;;;;18.25;2.70;;;14.90;99.90;;;;;;5006932;28;20128;-85
2021/12/30 10:59:43;;;;;;;12.13;1.85;;;14.90;99.90;;;;;;5023769;28;20037;-86
2021/12/30 11:02:17;;;;;;;14.82;2.15;;;15.00;99.90;;;;;;5005803;28;20056;-86
2021/12/30 11:04:57;;;;;;;15.82;2.20;;;15.00;99.90;;;;;;5003145;28;20128;-86
2021/12/30 11:07:26;;;;;;;13.98;2.33;;;14.90;99.90;;;;;;5003941;28;20036;-86
2021/12/30 11:09:54;;;;;;;12.55;1.65;;;14.90;99.90;;;;;;5004055;28;20053;-86
2021/12/30 11:12:26;;;;;;;8.80;1.20;;;14.90;99.90;;;;;;5003277;28;20022;-86
2021/12/30 11:14:54;;;;;;;14.13;3.20;;;14.90;99.90;;;;;;5022725;28;20120;-85
2021/12/30 11:17:29;;;;;;;12.40;2.45;;;14.90;99.90;;;;;;5021527;28;20038;-87
2021/12/30 11:19:58;;;;;;;9.57;1.50;;;14.90;99.90;;;;;;5003794;28;20052;-85
2021/12/30 11:22:28;;;;;;;8.90;1.85;;;14.90;99.90;;;;;;5002544;28;20483;-85
2021/12/30 11:24:57;;;;;;;8.43;1.95;;;14.90;99.90;;;;;;5008461;28;20030;-86
2021/12/30 11:27:25;;;;;;;8.20;1.02;;;14.90;99.90;;;;;;5024683;28;20022;-86
2021/12/30 11:30:12;;;;;;;8.73;1.48;;;14.90;99.90;;;;;;5028580;28;20026;-86
2021/12/30 11:32:38;;;;;;;13.60;1.60;;;14.90;99.90;;;;;;5024170;28;20026;-86
2021/12/30 11:35:06;;;;;;;10.40;1.17;;;14.80;99.90;;;;;;5006297;28;20061;-86
2021/12/30 11:37:33;;;;;;;12.13;2.10;;;14.90;99.90;;;;;;5007695;28;20053;-86
2021/12/30 11:40:10;;;;;;;8.02;1.48;;;14.90;99.90;;;;;;5012038;28;20075;-87
2021/12/30 11:42:45;;;;;;;11.48;1.42;;;14.90;99.90;;;;;;5023293;28;20026;-86
2021/12/30 11:45:30;;;;;;;11.55;1.80;;;14.90;99.90;;;;;;5006063;28;20103;-86
2021/12/30 11:47:59;;;;;;;11.52;1.50;;;15.00;99.90;;;;;;5022872;28;20040;-86
2021/12/30 11:50:37;;;;;;;15.82;1.40;;;15.00;99.90;;;;;;5007662;28;20077;-87
2021/12/30 11:53:11;;;;;;;8.52;1.48;;;15.00;99.90;;;;;;5022801;28;20028;-85
2021/12/30 11:55:50;;;;;;;8.35;1.10;;;15.00;99.90;;;;;;5027589;28;20121;-86
2021/12/30 11:58:36;;;;;;;11.15;1.27;;;15.10;99.90;;;;;;5008722;28;20053;-83
2021/12/30 12:01:27;;;;;;;10.40;1.52;;;15.10;99.90;;;;;;5013972;28;20141;-86
2021/12/30 12:04:01;;;;;;;9.30;1.95;;;15.10;99.90;;;;;;5030050;28;20052;-86
2021/12/30 12:09:13;;;;;;;11.98;1.77;;;15.20;99.90;;;;;;5014550;28;20113;-86
2021/12/30 12:11:48;;;;;;;8.98;2.10;;;15.20;99.90;;;;;;5006655;28;20053;-86
2021/12/30 12:14:20;;;;;;;8.93;1.55;;;15.20;99.90;;;;;;5010667;28;20034;-86
2021/12/30 12:16:55;;;;;;;11.80;1.83;;;15.20;99.90;;;;;;5014206;28;20022;-86
2021/12/30 12:19:47;;;;;;;9.98;1.52;;;15.30;99.90;;;;;;5010444;28;20026;-86
2021/12/30 12:22:18;;;;;;;15.15;1.80;;;15.20;99.90;;;;;;5011536;28;20030;-84
2021/12/30 12:24:50;;;;;;;8.40;1.27;;;15.30;99.90;;;;;;5014494;28;20041;-87
2021/12/30 12:27:18;;;;;;;13.10;2.10;;;15.30;99.90;;;;;;5029961;28;20052;-86
2021/12/30 12:29:51;;;;;;;6.53;1.23;;;15.20;99.90;;;;;;5013256;28;20038;-86
2021/12/30 12:32:33;;;;;;;7.32;1.13;;;15.30;99.90;;;;;;5007979;28;20022;-87
2021/12/30 12:35:00;;;;;;;;;;;15.30;99.90;;;;;;5013830;28;20033;-86
2021/12/30 12:37:32;;;;;;;5.57;0.90;;;15.30;99.90;;;;;;5005237;28;19909;-86
2021/12/30 12:40:00;;;;;;;9.55;1.10;;;15.20;99.90;;;;;;5025191;28;20026;-86
2021/12/30 12:42:50;;;;;;;5.28;0.82;;;15.30;99.90;;;;;;5009806;28;20076;-87